KGTF/GTF METAR and TAF weather

Enter ICAO airport designator
Station Type Date Time Source
KGTF METAR 2022/11/27 07:53 UTC NOAA

KGTF 270753Z 22018G26KT 10SM CLR 01/M07 A2980 RMK AO2 PK WND 22041/0732 SLP116 T00111072 $


Station Type Date Time Source
KGTF Decoded METAR 2022/11/27 07:53 UTC NOAA

GREAT FALLS INTERNATIONAL, MT, United States (KGTF) 47-28N 111-23W 1119M
Nov 27, 2022 - 02:53 AM EST / 2022.11.27 0753 UTC
Wind: from the SW (220 degrees) at 21 MPH (18 KT) gusting to 30 MPH (26 KT):0
Visibility: 10 mile(s):0
Sky conditions: clear
Temperature: 34.0 F (1.1 C)
Windchill: 23 F (-5 C):1
Dew Point: 19.0 F (-7.2 C)
Relative Humidity: 53%
Pressure (altimeter): 29.8 in. Hg (1009 hPa)
ob: KGTF 270753Z 22018G26KT 10SM CLR 01/M07 A2980 RMK AO2 PK WND 22041/0732 SLP116 T00111072
cycle: 8

Station Type Date Time Source
KGTF TAF 2022/11/27 06:45 UTC NOAA

TAF KGTF 270542Z 2706/2806 21018G28KT P6SM FEW250
FM271800 24027G46KT P6SM SCT250
FM272000 26025G40KT P6SM SCT090 PROB30 2720/2723 1/2SM SN OVC025
FM280500 26014KT P6SM SCT050

Example: see airport list